KAUM/AUM METAR and TAF weather

Enter ICAO airport designator
Station Type Date Time Source
KAUM METAR 2020/08/10 18:15 UTC NOAA

KAUM 101815Z AUTO 00000KT 10SM -RA CLR 19/17 A2997 RMK AO2 LTG DSNT SE AND S


Station Type Date Time Source
KAUM Decoded METAR 2020/08/10 18:15 UTC NOAA

Austin Municipal, MN, United States (KAUM) 43-40N 092-56W
Aug 10, 2020 - 02:15 PM EDT / 2020.08.10 1815 UTC
Wind: Calm:0
Visibility: 10 mile(s):0
Sky conditions: clear
Weather: light rain; Lightning observed
Temperature: 66 F (19 C)
Dew Point: 62 F (17 C)
Relative Humidity: 88%
Pressure (altimeter): 29.97 in. Hg (1014 hPa)
ob: KAUM 101815Z AUTO 00000KT 10SM -RA CLR 19/17 A2997 RMK AO2 LTG DSNT SE AND S
cycle: 18

Station Type Date Time Source
KAUM TAF UTC NOAA

Error!

Example: see airport list